createdAt,value
2022-12-22T00:00:33.084Z,70.10
2022-12-22T00:01:33.130Z,73.80
2022-12-22T00:02:33.155Z,87.30
2022-12-22T00:03:33.163Z,80.50
2022-12-22T00:04:33.049Z,97.90
2022-12-22T00:05:33.015Z,144.90
2022-12-22T00:06:32.977Z,129.50
2022-12-22T00:07:32.950Z,86.60
2022-12-22T00:08:32.981Z,73.60
2022-12-22T00:09:32.917Z,128.10
2022-12-22T00:10:32.906Z,219.70
2022-12-22T00:11:32.883Z,69.30
2022-12-22T00:12:32.922Z,70.50
2022-12-22T00:13:32.925Z,102.00
2022-12-22T00:14:32.869Z,68.40
2022-12-22T00:15:32.837Z,100.20
2022-12-22T00:16:32.920Z,79.00
2022-12-22T00:17:32.817Z,78.00
2022-12-22T00:18:32.826Z,87.30
2022-12-22T00:19:32.807Z,73.10
2022-12-22T00:20:32.781Z,85.10
2022-12-22T00:21:32.773Z,74.80
2022-12-22T00:22:32.792Z,82.30
2022-12-22T00:23:32.746Z,61.50
2022-12-22T00:24:32.728Z,115.00
2022-12-22T00:25:32.727Z,82.50
2022-12-22T00:26:32.686Z,75.00
2022-12-22T00:27:32.765Z,61.00
2022-12-22T00:28:32.669Z,91.80
2022-12-22T00:29:32.645Z,81.50
2022-12-22T00:30:32.763Z,77.50
2022-12-22T00:31:32.624Z,67.50
2022-12-22T00:32:32.655Z,82.80
2022-12-22T00:33:32.636Z,73.90
2022-12-22T00:34:32.960Z,76.20
2022-12-22T00:35:32.594Z,74.10
2022-12-22T00:36:32.581Z,104.30
2022-12-22T00:37:32.550Z,74.70
2022-12-22T00:38:32.568Z,80.90
2022-12-22T00:39:32.519Z,114.70
2022-12-22T00:40:32.563Z,80.30
2022-12-22T00:41:39.452Z,74.60
2022-12-22T00:42:32.467Z,65.70
2022-12-22T00:43:32.495Z,69.70
2022-12-22T00:44:32.515Z,109.10
2022-12-22T00:45:32.504Z,67.60
2022-12-22T00:46:32.518Z,64.20
2022-12-22T00:47:32.443Z,58.70
2022-12-22T00:48:32.391Z,61.30
2022-12-22T00:49:32.457Z,63.00
2022-12-22T00:50:32.432Z,107.10
2022-12-22T00:51:32.367Z,101.70
2022-12-22T00:52:32.382Z,155.60
2022-12-22T00:53:32.386Z,66.80
2022-12-22T00:54:32.369Z,76.10
2022-12-22T00:55:32.301Z,106.40
2022-12-22T00:56:32.299Z,77.60
2022-12-22T00:57:32.404Z,72.30
2022-12-22T00:58:32.272Z,93.80
2022-12-22T00:59:32.314Z,66.20
2022-12-22T01:00:32.268Z,63.40
2022-12-22T01:01:32.409Z,88.60
2022-12-22T01:02:32.419Z,75.90
2022-12-22T01:03:32.288Z,86.30
2022-12-22T01:04:32.217Z,81.50
2022-12-22T01:05:32.201Z,51.10
2022-12-22T01:06:32.213Z,70.50
2022-12-22T01:07:32.168Z,107.20
2022-12-22T01:08:32.195Z,83.80
2022-12-22T01:09:32.175Z,97.50
2022-12-22T01:10:32.105Z,105.10
2022-12-22T01:11:32.146Z,66.90
2022-12-22T01:12:32.132Z,67.10
2022-12-22T01:13:32.145Z,72.80
2022-12-22T01:14:32.093Z,75.70
2022-12-22T01:15:32.127Z,63.70
2022-12-22T01:16:32.135Z,52.20
2022-12-22T01:17:32.042Z,56.50
2022-12-22T01:18:32.040Z,66.70
2022-12-22T01:19:32.016Z,80.30
2022-12-22T01:20:31.998Z,76.50
2022-12-22T01:21:31.982Z,67.20
2022-12-22T01:22:31.980Z,58.40
2022-12-22T01:23:32.058Z,85.90
2022-12-22T01:24:31.985Z,107.20
2022-12-22T01:25:31.942Z,65.10
2022-12-22T01:26:31.964Z,67.90
2022-12-22T01:27:31.898Z,87.00
2022-12-22T01:28:31.894Z,82.70
2022-12-22T01:29:31.883Z,63.90
2022-12-22T01:30:31.898Z,57.10
2022-12-22T01:31:31.852Z,57.90
2022-12-22T01:32:31.863Z,74.90
2022-12-22T01:33:31.834Z,73.80
2022-12-22T01:34:31.860Z,97.70
2022-12-22T01:35:31.793Z,66.30
2022-12-22T01:36:31.844Z,56.00
2022-12-22T01:37:31.802Z,58.20
2022-12-22T01:38:31.828Z,55.90
2022-12-22T01:39:31.800Z,71.40
2022-12-22T01:40:31.750Z,81.20
2022-12-22T01:41:31.700Z,98.50
2022-12-22T01:42:31.743Z,64.00
2022-12-22T01:43:31.666Z,70.40
2022-12-22T01:44:31.680Z,229.90
2022-12-22T01:45:31.707Z,60.00
2022-12-22T01:46:31.708Z,65.60
2022-12-22T01:47:31.630Z,61.70
2022-12-22T01:48:31.642Z,61.70
2022-12-22T01:49:31.620Z,86.10
2022-12-22T01:50:31.594Z,58.70
2022-12-22T01:51:31.604Z,61.70
2022-12-22T01:52:31.595Z,74.50
2022-12-22T01:53:31.543Z,66.80
2022-12-22T01:54:31.539Z,60.90
2022-12-22T01:55:31.536Z,68.70
2022-12-22T01:56:31.501Z,53.00
2022-12-22T01:57:31.541Z,48.00
2022-12-22T01:58:31.474Z,57.40
2022-12-22T01:59:31.532Z,46.90
2022-12-22T02:00:31.470Z,53.10
2022-12-22T02:01:31.581Z,55.40
2022-12-22T02:02:31.611Z,50.60
2022-12-22T02:03:31.483Z,50.60
2022-12-22T02:04:31.432Z,51.50
2022-12-22T02:05:31.391Z,48.30
2022-12-22T02:06:31.366Z,47.10
2022-12-22T02:07:31.388Z,48.90
2022-12-22T02:08:31.340Z,50.50
2022-12-22T02:09:31.353Z,43.80
2022-12-22T02:10:31.345Z,54.50
2022-12-22T02:11:31.320Z,64.20
2022-12-22T02:12:31.313Z,50.60
2022-12-22T02:13:31.296Z,72.70
2022-12-22T02:14:31.327Z,70.60
2022-12-22T02:15:31.301Z,72.50
2022-12-22T02:16:31.338Z,55.80
2022-12-22T02:17:31.267Z,46.50
2022-12-22T02:18:31.219Z,52.30
2022-12-22T02:19:31.253Z,62.00
2022-12-22T02:20:31.247Z,47.00
2022-12-22T02:21:31.170Z,45.70
2022-12-22T02:22:31.208Z,73.10
2022-12-22T02:23:31.152Z,53.30
2022-12-22T02:24:31.157Z,50.80
2022-12-22T02:25:31.142Z,45.60
2022-12-22T02:26:31.133Z,42.50
2022-12-22T02:27:31.102Z,64.70
2022-12-22T02:28:31.111Z,41.90
2022-12-22T02:29:31.105Z,48.10
2022-12-22T02:30:31.068Z,43.30
2022-12-22T02:31:31.167Z,40.40
2022-12-22T02:32:31.032Z,39.20
2022-12-22T02:33:31.036Z,49.80
2022-12-22T02:34:31.016Z,45.50
2022-12-22T02:35:30.994Z,41.00
2022-12-22T02:36:30.967Z,39.50
2022-12-22T02:37:30.957Z,47.70
2022-12-22T02:38:30.992Z,42.20
2022-12-22T02:39:30.952Z,44.60
2022-12-22T02:40:35.667Z,53.60
2022-12-22T02:41:30.953Z,55.40
2022-12-22T02:42:30.910Z,49.90
2022-12-22T02:43:30.907Z,58.50
2022-12-22T02:44:30.931Z,54.00
2022-12-22T02:45:30.876Z,56.70
2022-12-22T02:46:30.905Z,44.10
2022-12-22T02:47:30.856Z,44.10
2022-12-22T02:48:30.828Z,51.00
2022-12-22T02:49:30.873Z,44.60
2022-12-22T02:50:30.809Z,46.30
2022-12-22T02:51:30.813Z,44.40
2022-12-22T02:52:30.765Z,47.60
2022-12-22T02:53:30.772Z,41.20
2022-12-22T02:54:30.753Z,39.20
2022-12-22T02:55:30.723Z,51.20
2022-12-22T02:56:30.707Z,41.50
2022-12-22T02:57:30.734Z,47.90
2022-12-22T02:58:30.682Z,53.60
2022-12-22T02:59:30.695Z,50.60
2022-12-22T03:00:30.649Z,49.30
2022-12-22T03:01:30.808Z,39.50
2022-12-22T03:02:30.767Z,49.50
2022-12-22T03:03:30.830Z,49.20
2022-12-22T03:04:30.606Z,49.70
2022-12-22T03:05:30.616Z,53.80
2022-12-22T03:06:30.579Z,45.50
2022-12-22T03:07:30.572Z,46.10
2022-12-22T03:08:30.572Z,36.60
2022-12-22T03:09:30.540Z,49.40
2022-12-22T03:10:30.602Z,41.10
2022-12-22T03:11:30.537Z,45.20
2022-12-22T03:12:30.514Z,33.50
2022-12-22T03:13:30.480Z,35.10
2022-12-22T03:14:30.503Z,39.10
2022-12-22T03:15:30.465Z,37.10
2022-12-22T03:16:30.513Z,34.80
2022-12-22T03:17:30.470Z,33.10
2022-12-22T03:18:30.487Z,38.80
2022-12-22T03:19:30.407Z,37.20
2022-12-22T03:20:30.384Z,36.60
2022-12-22T03:21:30.370Z,39.70
2022-12-22T03:22:30.365Z,33.70
2022-12-22T03:23:30.364Z,42.80
2022-12-22T03:24:30.326Z,30.80
2022-12-22T03:25:30.329Z,36.10
2022-12-22T03:26:30.326Z,28.50
2022-12-22T03:27:30.288Z,26.40
2022-12-22T03:28:30.336Z,36.10
2022-12-22T03:29:30.287Z,32.10
2022-12-22T03:30:30.270Z,40.20
2022-12-22T03:31:30.307Z,41.50
2022-12-22T03:32:30.238Z,39.20
2022-12-22T03:33:30.238Z,31.10
2022-12-22T03:34:30.207Z,33.80
2022-12-22T03:35:30.218Z,31.80
2022-12-22T03:36:30.178Z,34.80
2022-12-22T03:37:30.174Z,33.30
2022-12-22T03:38:30.174Z,31.40
2022-12-22T03:39:30.147Z,32.40
2022-12-22T03:40:30.308Z,32.00
2022-12-22T03:41:30.131Z,29.90
2022-12-22T03:42:30.099Z,33.00
2022-12-22T03:43:30.108Z,30.00
2022-12-22T03:44:30.066Z,29.60
2022-12-22T03:45:30.080Z,27.90
2022-12-22T03:46:30.084Z,28.10
2022-12-22T03:47:30.055Z,29.30
2022-12-22T03:48:30.047Z,27.60
2022-12-22T03:49:30.028Z,28.40
2022-12-22T03:50:29.982Z,32.10
2022-12-22T03:51:29.986Z,32.40
2022-12-22T03:52:29.971Z,28.50
2022-12-22T03:53:29.944Z,33.60
2022-12-22T03:54:29.950Z,34.30
2022-12-22T03:55:29.943Z,39.10
2022-12-22T03:56:29.904Z,34.40
2022-12-22T03:57:29.910Z,32.60
2022-12-22T03:58:29.886Z,31.20
2022-12-22T03:59:29.865Z,30.60
2022-12-22T04:00:29.849Z,37.90
2022-12-22T04:01:29.977Z,28.60
2022-12-22T04:02:29.856Z,33.40
2022-12-22T04:03:29.897Z,36.80
2022-12-22T04:04:29.789Z,35.80
2022-12-22T04:05:29.783Z,33.20
2022-12-22T04:06:29.783Z,35.30
2022-12-22T04:07:29.807Z,35.10
2022-12-22T04:08:29.779Z,32.60
2022-12-22T04:09:29.812Z,37.30
2022-12-22T04:10:29.745Z,34.30
2022-12-22T04:11:29.745Z,39.40
2022-12-22T04:12:29.709Z,39.50
2022-12-22T04:13:29.752Z,42.40
2022-12-22T04:14:33.997Z,48.40
2022-12-22T04:15:29.713Z,37.60
2022-12-22T04:16:29.685Z,41.50
2022-12-22T04:17:29.668Z,51.60
2022-12-22T04:18:29.675Z,41.90
2022-12-22T04:19:29.630Z,52.10
2022-12-22T04:20:29.610Z,41.80
2022-12-22T04:21:29.621Z,44.80
2022-12-22T04:22:29.591Z,44.70
2022-12-22T04:23:29.607Z,43.50
2022-12-22T04:24:29.582Z,57.70
2022-12-22T04:25:29.575Z,58.60
2022-12-22T04:26:29.543Z,55.00
2022-12-22T04:27:29.530Z,45.10
2022-12-22T04:28:29.592Z,46.30
2022-12-22T04:29:29.479Z,46.10
2022-12-22T04:30:29.474Z,46.70
2022-12-22T04:31:29.494Z,47.20
2022-12-22T04:32:29.465Z,49.50
2022-12-22T04:33:29.451Z,45.50
2022-12-22T04:34:29.420Z,40.40
2022-12-22T04:35:29.419Z,45.40
2022-12-22T04:36:29.368Z,43.30
2022-12-22T04:37:29.362Z,61.70
2022-12-22T04:38:29.363Z,49.20
2022-12-22T04:39:29.384Z,71.60
2022-12-22T04:40:29.341Z,43.40
2022-12-22T04:41:29.332Z,48.90
2022-12-22T04:42:29.294Z,53.20
2022-12-22T04:43:29.314Z,58.10
2022-12-22T04:44:29.281Z,63.60
2022-12-22T04:45:29.287Z,51.10
2022-12-22T04:46:29.383Z,54.30
2022-12-22T04:47:29.298Z,52.50
2022-12-22T04:48:29.208Z,58.30
2022-12-22T04:49:29.238Z,62.80
2022-12-22T04:50:29.197Z,70.60
2022-12-22T04:51:29.196Z,60.30
2022-12-22T04:52:29.184Z,54.30
2022-12-22T04:53:29.171Z,52.50
2022-12-22T04:54:29.162Z,62.90
2022-12-22T04:55:29.144Z,66.00
2022-12-22T04:56:29.164Z,59.30
2022-12-22T04:57:29.148Z,69.70
2022-12-22T04:58:29.107Z,78.00
2022-12-22T04:59:29.108Z,64.80
2022-12-22T05:00:29.084Z,58.30
2022-12-22T05:01:29.248Z,65.80
2022-12-22T05:02:29.192Z,72.20
2022-12-22T05:03:29.088Z,71.60
2022-12-22T05:04:29.033Z,65.80
2022-12-22T05:05:29.038Z,81.50
2022-12-22T05:06:28.970Z,75.00
2022-12-22T05:07:28.998Z,67.30
2022-12-22T05:08:28.991Z,62.00
2022-12-22T05:09:29.004Z,71.90
2022-12-22T05:10:28.930Z,78.70
2022-12-22T05:11:28.929Z,86.20
2022-12-22T05:12:28.923Z,66.70
2022-12-22T05:13:28.885Z,77.30
2022-12-22T05:14:28.870Z,69.10
2022-12-22T05:15:28.869Z,89.00
2022-12-22T05:16:28.875Z,76.00
2022-12-22T05:17:28.870Z,91.90
2022-12-22T05:18:28.825Z,82.80
2022-12-22T05:19:30.828Z,84.30
2022-12-22T05:20:28.824Z,93.20
2022-12-22T05:21:28.798Z,87.90
2022-12-22T05:22:28.877Z,79.20
2022-12-22T05:23:28.755Z,80.60
2022-12-22T05:24:28.788Z,91.20
2022-12-22T05:25:34.809Z,102.10
2022-12-22T05:26:28.732Z,69.80
2022-12-22T05:27:28.729Z,75.60
2022-12-22T05:28:28.677Z,83.30
2022-12-22T05:29:28.716Z,93.50
2022-12-22T05:30:28.738Z,113.50
2022-12-22T05:31:28.782Z,86.40
2022-12-22T05:32:28.648Z,81.00
2022-12-22T05:33:28.638Z,89.90
2022-12-22T05:34:28.659Z,80.30
2022-12-22T05:35:28.605Z,67.30
2022-12-22T05:36:28.591Z,68.00
2022-12-22T05:37:28.564Z,72.60
2022-12-22T05:38:28.549Z,82.60
2022-12-22T05:39:28.606Z,81.00
2022-12-22T05:40:28.558Z,65.50
2022-12-22T05:41:28.538Z,75.10
2022-12-22T05:42:28.523Z,74.00
2022-12-22T05:43:28.533Z,59.00
2022-12-22T05:44:28.495Z,66.60
2022-12-22T05:45:28.483Z,68.40
2022-12-22T05:46:28.511Z,68.20
2022-12-22T05:47:28.453Z,64.70
2022-12-22T05:48:33.681Z,69.10
2022-12-22T05:49:28.459Z,55.80
2022-12-22T05:50:28.418Z,66.10
2022-12-22T05:51:28.403Z,61.70
2022-12-22T05:52:28.371Z,62.20
2022-12-22T05:53:28.405Z,57.60
2022-12-22T05:54:28.375Z,69.70
2022-12-22T05:55:28.358Z,59.50
2022-12-22T05:56:28.335Z,61.20
2022-12-22T05:57:28.323Z,60.00
2022-12-22T05:58:28.312Z,71.50
2022-12-22T05:59:28.292Z,66.20
2022-12-22T06:00:28.261Z,65.20
2022-12-22T06:01:28.286Z,72.20
2022-12-22T06:02:28.393Z,54.20
2022-12-22T06:03:28.405Z,68.00
2022-12-22T06:04:28.293Z,64.60
2022-12-22T06:05:28.244Z,57.30
2022-12-22T06:06:28.221Z,64.00
2022-12-22T06:07:28.165Z,65.00
2022-12-22T06:08:28.183Z,65.40
2022-12-22T06:09:28.146Z,66.20
2022-12-22T06:10:28.161Z,63.30
2022-12-22T06:11:28.115Z,65.00
2022-12-22T06:12:28.112Z,68.10
2022-12-22T06:13:28.108Z,66.10
2022-12-22T06:14:28.105Z,65.90
2022-12-22T06:15:28.172Z,69.00
2022-12-22T06:16:28.140Z,72.60
2022-12-22T06:17:28.048Z,73.70
2022-12-22T06:18:28.048Z,57.80
2022-12-22T06:19:28.033Z,64.60
2022-12-22T06:20:28.026Z,58.20
2022-12-22T06:21:28.012Z,62.60
2022-12-22T06:22:27.970Z,63.90
2022-12-22T06:23:27.977Z,57.60
2022-12-22T06:24:27.944Z,67.50
2022-12-22T06:25:27.981Z,69.20
2022-12-22T06:26:27.939Z,58.10
2022-12-22T06:27:27.937Z,60.60
2022-12-22T06:28:27.917Z,63.40
2022-12-22T06:29:27.895Z,63.80
2022-12-22T06:30:33.311Z,56.00
2022-12-22T06:31:27.904Z,68.20
2022-12-22T06:32:27.843Z,72.10
2022-12-22T06:33:27.862Z,62.80
2022-12-22T06:34:27.872Z,70.90
2022-12-22T06:35:27.821Z,65.10
2022-12-22T06:36:27.804Z,68.80
2022-12-22T06:37:27.825Z,66.60
2022-12-22T06:38:27.779Z,64.80
2022-12-22T06:39:27.765Z,65.50
2022-12-22T06:40:27.743Z,62.10
2022-12-22T06:41:27.782Z,67.00
2022-12-22T06:42:27.695Z,66.80
2022-12-22T06:43:27.696Z,65.20
2022-12-22T06:44:27.709Z,60.60
2022-12-22T06:45:27.736Z,61.00
2022-12-22T06:46:27.828Z,62.90
2022-12-22T06:47:27.661Z,69.30
2022-12-22T06:48:27.636Z,60.40
2022-12-22T06:49:27.680Z,65.10
2022-12-22T06:50:27.614Z,62.20
2022-12-22T06:51:27.628Z,60.00
2022-12-22T06:52:27.601Z,59.20
2022-12-22T06:53:27.581Z,69.70
2022-12-22T06:54:27.604Z,68.50
2022-12-22T06:55:27.536Z,64.40
2022-12-22T06:56:27.589Z,62.30
2022-12-22T06:57:27.547Z,58.90
2022-12-22T06:58:27.489Z,60.40
2022-12-22T06:59:27.491Z,68.40
2022-12-22T07:00:27.509Z,71.70
2022-12-22T07:01:27.562Z,64.30
2022-12-22T07:02:27.805Z,59.70
2022-12-22T07:03:27.540Z,60.00
2022-12-22T07:04:27.440Z,58.50
2022-12-22T07:05:27.402Z,61.80
2022-12-22T07:06:27.387Z,57.80
2022-12-22T07:07:27.383Z,62.40
2022-12-22T07:08:27.383Z,53.90
2022-12-22T07:09:27.384Z,61.40
2022-12-22T07:10:27.353Z,57.90
2022-12-22T07:11:27.340Z,55.10
2022-12-22T07:12:27.332Z,53.10
2022-12-22T07:13:27.358Z,54.20
2022-12-22T07:14:27.319Z,59.40
2022-12-22T07:15:27.287Z,48.80
2022-12-22T07:16:27.303Z,53.70
2022-12-22T07:17:27.298Z,49.00
2022-12-22T07:18:27.287Z,54.70
2022-12-22T07:19:27.246Z,51.10
2022-12-22T07:20:27.232Z,53.70
2022-12-22T07:21:27.209Z,52.90
2022-12-22T07:22:30.332Z,49.20
2022-12-22T07:23:27.173Z,51.40
2022-12-22T07:24:27.184Z,55.20
2022-12-22T07:25:27.141Z,50.90
2022-12-22T07:26:27.220Z,51.10
2022-12-22T07:27:27.116Z,50.60
2022-12-22T07:28:27.107Z,46.20
2022-12-22T07:29:27.104Z,42.70
2022-12-22T07:30:27.114Z,52.70
2022-12-22T07:31:27.110Z,45.70
2022-12-22T07:32:27.066Z,47.90
2022-12-22T07:33:27.048Z,40.30
2022-12-22T07:34:27.019Z,44.60
2022-12-22T07:35:27.031Z,46.50
2022-12-22T07:36:27.023Z,41.40
2022-12-22T07:37:26.990Z,44.00
2022-12-22T07:38:27.034Z,46.20
2022-12-22T07:39:26.963Z,45.30
2022-12-22T07:40:26.975Z,44.60
2022-12-22T07:41:26.969Z,47.20
2022-12-22T07:42:26.913Z,43.10
2022-12-22T07:43:26.916Z,44.60
2022-12-22T07:44:26.902Z,41.80
2022-12-22T07:45:26.915Z,41.50
2022-12-22T07:46:26.962Z,39.20
2022-12-22T07:47:31.644Z,43.10
2022-12-22T07:48:26.870Z,39.90
2022-12-22T07:49:26.853Z,35.20
2022-12-22T07:50:26.832Z,44.60
2022-12-22T07:51:26.811Z,38.50
2022-12-22T07:52:26.804Z,45.90
2022-12-22T07:53:26.763Z,36.50
2022-12-22T07:54:26.765Z,41.40
2022-12-22T07:55:26.754Z,39.50
2022-12-22T07:56:26.741Z,40.40
2022-12-22T07:57:26.742Z,36.20
2022-12-22T07:58:26.720Z,35.60
2022-12-22T07:59:26.726Z,33.40
2022-12-22T08:00:26.685Z,32.00
2022-12-22T08:01:26.738Z,31.80
2022-12-22T08:02:26.903Z,32.10
2022-12-22T08:03:26.712Z,31.80
2022-12-22T08:04:26.661Z,33.30
2022-12-22T08:05:26.621Z,32.70
2022-12-22T08:06:26.611Z,34.40
2022-12-22T08:07:26.604Z,35.00
2022-12-22T08:08:26.615Z,28.20
2022-12-22T08:09:26.569Z,33.50
2022-12-22T08:10:26.613Z,33.20
2022-12-22T08:11:26.549Z,29.40
2022-12-22T08:12:26.539Z,32.60
2022-12-22T08:13:26.586Z,31.10
2022-12-22T08:14:26.486Z,30.50
2022-12-22T08:15:26.484Z,32.20
2022-12-22T08:16:26.575Z,34.30
2022-12-22T08:17:26.453Z,37.20
2022-12-22T08:18:26.455Z,28.30
2022-12-22T08:19:26.412Z,31.90
2022-12-22T08:20:26.432Z,31.10
2022-12-22T08:21:26.395Z,37.40
2022-12-22T08:22:26.386Z,34.10
2022-12-22T08:23:26.385Z,36.00
2022-12-22T08:24:26.382Z,33.60
2022-12-22T08:25:26.369Z,37.20
2022-12-22T08:26:26.347Z,30.90
2022-12-22T08:27:26.524Z,37.60
2022-12-22T08:28:26.332Z,38.70
2022-12-22T08:29:26.288Z,34.70
2022-12-22T08:30:26.324Z,39.20
2022-12-22T08:31:26.316Z,37.30
2022-12-22T08:32:26.245Z,44.40
2022-12-22T08:33:26.251Z,44.10
2022-12-22T08:34:26.217Z,43.20
2022-12-22T08:35:26.243Z,41.50
2022-12-22T08:36:26.207Z,44.20
2022-12-22T08:37:26.212Z,46.60
2022-12-22T08:38:26.172Z,37.70
2022-12-22T08:39:26.161Z,47.60
2022-12-22T08:40:26.157Z,40.80
2022-12-22T08:41:26.154Z,39.80
2022-12-22T08:42:26.130Z,46.50
2022-12-22T08:43:26.111Z,48.40
2022-12-22T08:44:26.132Z,41.30
2022-12-22T08:45:26.082Z,48.20
2022-12-22T08:46:26.156Z,45.00
2022-12-22T08:47:26.144Z,46.90
2022-12-22T08:48:26.035Z,51.40
2022-12-22T08:49:26.060Z,45.80
2022-12-22T08:50:26.064Z,46.20
2022-12-22T08:51:26.007Z,44.20
2022-12-22T08:52:25.991Z,46.70
2022-12-22T08:54:03.128Z,50.40
2022-12-22T08:54:25.988Z,42.50
2022-12-22T08:55:25.957Z,42.20
2022-12-22T08:56:25.952Z,40.40
2022-12-22T08:57:25.937Z,42.90
2022-12-22T08:58:25.924Z,55.40
2022-12-22T08:59:25.917Z,41.40
2022-12-22T09:00:25.898Z,42.90
2022-12-22T09:01:25.991Z,35.80
2022-12-22T09:02:25.944Z,41.80
2022-12-22T09:03:25.932Z,45.10
2022-12-22T09:04:25.863Z,42.70
2022-12-22T09:05:25.834Z,39.90
2022-12-22T09:06:27.637Z,44.30
2022-12-22T09:07:25.862Z,40.30
2022-12-22T09:08:25.782Z,34.80
2022-12-22T09:09:25.776Z,47.30
2022-12-22T09:10:25.744Z,38.20
2022-12-22T09:11:25.737Z,40.10
2022-12-22T09:12:25.738Z,39.70
2022-12-22T09:13:25.736Z,38.00
2022-12-22T09:14:25.737Z,36.90
2022-12-22T09:15:25.696Z,45.10
2022-12-22T09:16:25.787Z,43.70
2022-12-22T09:17:25.670Z,44.00
2022-12-22T09:18:25.642Z,46.00
2022-12-22T09:19:25.654Z,45.30
2022-12-22T09:20:25.642Z,45.00
2022-12-22T09:21:25.611Z,40.10
2022-12-22T09:22:28.120Z,42.40
2022-12-22T09:23:25.590Z,41.90
2022-12-22T09:24:25.598Z,38.30
2022-12-22T09:25:25.584Z,90.50
2022-12-22T09:26:25.581Z,36.20
2022-12-22T09:27:25.536Z,39.10
2022-12-22T09:28:25.521Z,46.20
2022-12-22T09:29:25.531Z,37.30
2022-12-22T09:30:25.504Z,36.80
2022-12-22T09:31:25.588Z,40.30
2022-12-22T09:32:25.454Z,43.80
2022-12-22T09:33:25.449Z,42.80
2022-12-22T09:34:25.451Z,48.50
2022-12-22T09:35:25.455Z,42.10
2022-12-22T09:36:25.456Z,46.00
2022-12-22T09:37:25.427Z,44.20
2022-12-22T09:38:25.384Z,45.60
2022-12-22T09:39:29.055Z,37.90
2022-12-22T09:40:25.380Z,40.70
2022-12-22T09:41:25.338Z,43.70
2022-12-22T09:42:25.339Z,38.20
2022-12-22T09:43:25.334Z,38.80
2022-12-22T09:44:25.347Z,41.20
2022-12-22T09:45:25.273Z,39.00
2022-12-22T09:46:25.370Z,37.30
2022-12-22T09:47:25.311Z,40.80
2022-12-22T09:48:25.267Z,40.00
2022-12-22T09:49:25.219Z,31.10
2022-12-22T09:50:25.299Z,38.50
2022-12-22T09:51:27.393Z,40.80
2022-12-22T09:52:25.207Z,40.50
2022-12-22T09:53:25.181Z,45.60
2022-12-22T09:54:25.168Z,37.40
2022-12-22T09:55:25.174Z,37.40
2022-12-22T09:56:25.172Z,38.00
2022-12-22T09:57:25.238Z,38.60
2022-12-22T09:58:26.742Z,38.40
2022-12-22T09:59:25.089Z,38.30
2022-12-22T10:00:25.102Z,50.50
2022-12-22T10:01:25.157Z,37.40
2022-12-22T10:02:25.210Z,36.60
2022-12-22T10:03:25.127Z,41.00
2022-12-22T10:04:25.048Z,44.00
2022-12-22T10:05:25.024Z,35.80
2022-12-22T10:06:25.026Z,41.80
2022-12-22T10:07:25.071Z,41.90
2022-12-22T10:08:25.011Z,35.90
2022-12-22T10:09:48.750Z,42.30
2022-12-22T10:10:25.139Z,40.80
2022-12-22T10:11:24.956Z,35.50
2022-12-22T10:12:24.992Z,41.00
2022-12-22T10:13:24.909Z,40.50
2022-12-22T10:14:24.913Z,40.70
2022-12-22T10:15:24.908Z,38.70
2022-12-22T10:16:24.924Z,33.60
2022-12-22T10:17:24.925Z,36.60
2022-12-22T10:18:24.834Z,40.70
2022-12-22T10:19:24.844Z,37.10
2022-12-22T10:20:24.853Z,32.40
2022-12-22T10:21:24.823Z,29.70
2022-12-22T10:22:24.790Z,33.70
2022-12-22T10:23:24.786Z,33.60
2022-12-22T10:24:24.782Z,30.10
2022-12-22T10:25:24.761Z,34.90
2022-12-22T10:26:29.655Z,33.60
2022-12-22T10:27:28.899Z,34.40
2022-12-22T10:28:24.712Z,30.60
2022-12-22T10:29:24.710Z,35.50
2022-12-22T10:30:24.718Z,29.70
2022-12-22T10:31:24.706Z,31.50
2022-12-22T10:32:24.730Z,30.40
2022-12-22T10:33:24.632Z,29.20
2022-12-22T10:34:24.625Z,30.70
2022-12-22T10:35:24.625Z,29.60
2022-12-22T10:36:24.619Z,32.50
2022-12-22T10:37:24.603Z,31.20
2022-12-22T10:38:24.566Z,32.40
2022-12-22T10:39:24.568Z,31.40
2022-12-22T10:40:24.577Z,32.80
2022-12-22T10:41:24.558Z,37.40
2022-12-22T10:42:24.549Z,28.80
2022-12-22T10:43:24.523Z,26.90
2022-12-22T10:44:24.553Z,26.10
2022-12-22T10:45:24.485Z,33.10
2022-12-22T10:46:24.526Z,29.00
2022-12-22T10:47:24.690Z,37.60
2022-12-22T10:48:24.455Z,27.10
2022-12-22T10:49:24.468Z,28.00
2022-12-22T10:50:24.454Z,30.20
2022-12-22T10:51:24.407Z,28.60
2022-12-22T10:52:29.989Z,27.50
2022-12-22T10:53:24.390Z,28.20
2022-12-22T10:54:24.386Z,26.70
2022-12-22T10:55:24.341Z,27.60
2022-12-22T10:56:24.375Z,23.80
2022-12-22T10:57:24.369Z,28.00
2022-12-22T10:58:24.313Z,29.70
2022-12-22T10:59:24.306Z,28.10
2022-12-22T11:00:24.294Z,23.60
2022-12-22T11:01:24.457Z,24.20
2022-12-22T11:02:24.422Z,24.90
2022-12-22T11:03:24.815Z,27.00
2022-12-22T11:04:24.259Z,26.30
2022-12-22T11:05:24.232Z,31.00
2022-12-22T11:06:24.191Z,26.60
2022-12-22T11:07:24.170Z,27.10
2022-12-22T11:08:24.199Z,26.60
2022-12-22T11:09:33.582Z,30.40
2022-12-22T11:10:24.178Z,24.20
2022-12-22T11:11:24.119Z,24.50
2022-12-22T11:12:24.107Z,28.90
2022-12-22T11:13:24.160Z,26.80
2022-12-22T11:14:24.084Z,27.30
2022-12-22T11:15:25.035Z,24.80
2022-12-22T11:16:24.184Z,27.10
2022-12-22T11:17:24.038Z,21.30
2022-12-22T11:18:24.023Z,24.70
2022-12-22T11:19:24.031Z,26.00
2022-12-22T11:20:24.006Z,19.10
2022-12-22T11:21:24.599Z,20.00
2022-12-22T11:22:23.993Z,25.10
2022-12-22T11:23:24.004Z,24.70
2022-12-22T11:24:23.960Z,24.00
2022-12-22T11:25:23.935Z,25.40
2022-12-22T11:26:23.921Z,28.10
2022-12-22T11:27:23.920Z,23.80
2022-12-22T11:28:23.888Z,24.60
2022-12-22T11:29:23.933Z,26.70
2022-12-22T11:30:23.881Z,18.50
2022-12-22T11:31:23.971Z,17.50
2022-12-22T11:32:23.870Z,18.80
2022-12-22T11:33:23.853Z,18.00
2022-12-22T11:34:23.821Z,20.80
2022-12-22T11:35:23.829Z,17.40
2022-12-22T11:36:23.801Z,16.90
2022-12-22T11:37:23.794Z,14.90
2022-12-22T11:38:23.804Z,15.90
2022-12-22T11:39:23.757Z,12.80
2022-12-22T11:40:23.747Z,14.10
2022-12-22T11:41:23.742Z,22.10
2022-12-22T11:42:23.720Z,14.20
2022-12-22T11:43:23.704Z,15.70
2022-12-22T11:44:23.690Z,14.10
2022-12-22T11:45:23.699Z,15.60
2022-12-22T11:46:23.757Z,12.40
2022-12-22T11:47:23.634Z,16.20
2022-12-22T11:48:23.638Z,16.00
2022-12-22T11:49:23.651Z,15.80
2022-12-22T11:50:57.716Z,19.10
2022-12-22T11:51:27.263Z,17.80
2022-12-22T11:52:23.561Z,18.40
2022-12-22T11:53:23.587Z,17.50
2022-12-22T11:54:23.559Z,22.60
2022-12-22T11:55:23.561Z,17.80
2022-12-22T11:56:23.559Z,15.60
2022-12-22T11:57:23.508Z,16.80
2022-12-22T11:58:23.498Z,14.60
2022-12-22T11:59:23.497Z,14.90
2022-12-22T12:00:32.649Z,17.20
2022-12-22T12:01:26.149Z,16.50
2022-12-22T12:02:23.628Z,14.70
2022-12-22T12:03:23.542Z,18.30
2022-12-22T12:04:23.479Z,14.80
2022-12-22T12:05:23.390Z,14.70
2022-12-22T12:06:23.408Z,14.20
2022-12-22T12:07:25.995Z,19.90
2022-12-22T12:08:23.399Z,17.00
2022-12-22T12:09:23.380Z,14.20
2022-12-22T12:10:23.404Z,14.10
2022-12-22T12:11:23.347Z,17.40
2022-12-22T12:12:23.336Z,16.00
2022-12-22T12:13:28.725Z,14.90
2022-12-22T12:14:23.353Z,16.90
2022-12-22T12:15:23.356Z,23.80
2022-12-22T12:16:23.304Z,15.10
2022-12-22T12:17:23.276Z,19.40
2022-12-22T12:18:23.312Z,18.10
2022-12-22T12:19:26.838Z,17.10
2022-12-22T12:20:23.271Z,18.10
2022-12-22T12:21:23.242Z,16.40
2022-12-22T12:22:23.182Z,19.60
2022-12-22T12:23:23.189Z,19.90
2022-12-22T12:24:23.141Z,16.20
2022-12-22T12:25:26.011Z,17.70
2022-12-22T12:26:23.130Z,16.30
2022-12-22T12:27:23.133Z,17.20
2022-12-22T12:28:23.078Z,14.50
2022-12-22T12:29:23.095Z,17.60
2022-12-22T12:30:39.274Z,20.50
2022-12-22T12:31:26.579Z,23.20
2022-12-22T12:32:23.026Z,16.80
2022-12-22T12:33:23.055Z,18.00
2022-12-22T12:34:23.000Z,12.50
2022-12-22T12:35:23.017Z,12.70
2022-12-22T12:36:23.005Z,14.10
2022-12-22T12:37:26.325Z,14.50
2022-12-22T12:39:05.139Z,15.40
2022-12-22T12:39:22.966Z,14.30
2022-12-22T12:40:22.921Z,17.00
2022-12-22T12:41:22.937Z,14.90
2022-12-22T12:42:22.941Z,16.10
2022-12-22T12:43:22.911Z,16.30
2022-12-22T12:44:22.924Z,15.30
2022-12-22T12:45:22.902Z,15.20
2022-12-22T12:46:22.934Z,16.00
2022-12-22T12:47:22.870Z,15.10
2022-12-22T12:48:22.834Z,14.30
2022-12-22T12:49:26.407Z,16.00
2022-12-22T12:50:22.817Z,13.80
2022-12-22T12:51:22.815Z,15.00
2022-12-22T12:52:22.826Z,14.00